Station: Mackay  

  Atmospheric Gas Attenuation - ITU Rec 676-11   ----------------- dB/100km -----------------
Date Time Temp RH % AH g/m3 Dew Point Wind Direction Speed kph Gust kph Barometer mB Rainfall Since 9am 24GHz 47GHz 76GHz 122GHz 134GHz 241GHz
04/05 15:30 25 82 18.88 21.7 15 26 1014 0.4 40.7 39.8 76.7 202.8 223.0 774.7
04/05 15:20 25 79 18.19 21.1 13 19 1014 0.4 39.2 38.6 73.4 194.2 212.5 738.0
04/05 15:10 25.4 81 19.07 21.9 15 24 1014 0.4 41.1 40.0 77.2 204.1 224.8 780.7
04/05 15:00 25.3 80 18.73 21.6 15 24 1014 0.4 40.3 39.4 75.7 200.1 219.8 763.6
04/05 14:50 25.1 81 18.75 21.6 15 19 1014 0.4 40.4 39.6 76.0 200.9 220.7 766.7
04/05 14:40 25.4 83 19.54 22.3 17 24 1014 0.4 42.1 40.9 79.4 210.0 232.0 806.1
04/05 14:30 25.4 81 19.07 21.9 13 22 1014 0.4 41.1 40.0 77.2 204.1 224.8 780.7
04/05 14:20 25.5 81 19.18 22 15 19 1014 0.4 41.3 40.2 77.6 205.2 226.2 785.6
04/05 14:10 25.8 82 19.74 22.5 13 15 1014 0.4 42.4 41.1 79.9 211.5 233.9 812.6
04/05 14:00 25.8 81 19.5 22.3 15 22 1014.1 0.4 41.9 40.6 78.8 208.4 230.2 799.7
04/05 13:50 25.6 82 19.52 22.3 13 19 1014 0.4 42.0 40.8 79.1 209.2 231.1 802.8
04/05 13:40 25.2 81 18.86 21.7 19 24 1014 0.4 40.6 39.7 76.4 202.0 222.1 771.6
04/05 13:30 25.8 82 19.74 22.5 15 22 1014.1 0.4 42.4 41.1 79.9 211.5 233.9 812.6
04/05 13:20 25.8 82 19.74 22.5 7 11 1014.3 0.4 42.4 41.1 79.9 211.5 234.0 812.8
04/05 13:10 25.7 83 19.87 22.6 13 15 1014.4 0.4 42.7 41.4 80.7 213.5 236.3 820.9
04/05 13:00 25.7 82 19.63 22.4 13 20 1014.6 0.4 42.2 41.0 79.5 210.4 232.6 808.0
04/05 12:50 25.7 80 19.15 22 19 20 1014.7 0.4 41.2 40.1 77.3 204.4 225.2 782.3
04/05 12:40 25.9 83 20.09 22.8 11 19 1015 0.4 43.2 41.8 81.6 215.8 239.2 831.1
04/05 12:30 25.6 83 19.76 22.5 15 24 1015.1 0.4 42.5 41.3 80.3 212.5 235.0 816.4
04/05 12:20 25.5 84 19.89 22.6 9 13 1015.3 0.4 42.8 41.6 81.0 214.4 237.4 824.7
04/05 12:10 25.2 82 19.09 21.9 19 24 1015.4 0.4 41.1 40.2 77.5 205.1 225.9 784.6
04/05 12:00 25.4 82 19.3 22.1 17 26 1015.5 0.4 41.5 40.5 78.3 207.2 228.5 793.9
04/05 11:50 25.3 85 19.9 22.6 17 20 1015.7 0.4 42.8 41.7 81.3 215.2 238.3 827.7
04/05 11:40 25.5 87 20.6 23.2 7 15 1016 0.4 44.3 43.0 84.5 223.7 248.8 864.2
04/05 11:30 24.7 89 20.14 22.8 13 19 1016.2 0.4 43.4 42.5 83.2 220.1 244.1 847.9
04/05 11:20 24 91 19.8 22.4 11 15 1016.3 0.4 42.8 42.2 82.3 217.7 241.0 836.9
04/05 11:10 23 90 18.5 21.3 6 6 1016.5 0.4 40.1 40.2 77.1 203.8 223.5 776.0
04/05 11:00 23.4 92 19.34 22 2 9 1016.5 0.4 41.8 41.6 80.7 213.5 235.6 818.1
04/05 10:50 23 93 19.11 21.8 6 6 1016.6 0.4 41.4 41.4 80.0 211.7 233.2 809.7
04/05 10:40 22.9 94 19.21 21.9 4 7 1016.8 0.4 41.6 41.6 80.6 213.3 235.1 816.5
04/05 10:30 22.1 93 18.15 20.9 6 11 1016.9 0.4 39.4 40.0 76.3 201.8 220.7 766.3
04/05 10:20 22.2 91 17.86 20.7 11 13 1016.8 0.4 38.8 39.3 74.8 197.8 215.9 749.3
04/05 10:10 23.4 88 18.5 21.3 15 19 1016.8 0.4 40.0 40.0 76.7 202.7 222.3 772.1
04/05 10:00 23.6 90 19.14 21.9 9 17 1016.9 0.4 41.4 41.2 79.6 210.4 231.8 805.1
04/05 09:50 23.7 87 18.61 21.4 7 9 1017 0.2 40.2 40.1 76.9 203.4 223.2 775.1
04/05 09:40 23.7 87 18.61 21.4 9 11 1016.9 0.2 40.2 40.1 76.9 203.3 223.2 775.0
04/05 09:30 23.8 86 18.5 21.3 13 20 1016.9 0.2 40.0 39.8 76.3 201.7 221.2 768.0
04/05 09:20 24.1 85 18.6 21.4 13 17 1016.8 0.2 40.2 39.9 76.4 202.1 221.8 770.3
04/05 09:10 24.2 84 18.48 21.3 15 20 1016.6 0 39.9 39.6 75.8 200.3 219.6 762.7
04/05 09:00 23.6 88 18.72 21.5 11 20 1016.6 0 40.5 40.3 77.5 205.0 225.2 781.9
04/05 08:50 23.4 86 18.08 20.9 11 15 1016.5 5.4 39.1 39.2 74.6 197.4 215.8 749.2
04/05 08:40 23.4 84 17.66 20.5 15 20 1016.5 5.4 38.2 38.4 72.7 192.1 209.3 726.7
04/05 08:30 23.5 83 17.55 20.4 13 24 1016.4 5.4 38.0 38.1 72.1 190.5 207.3 719.8
04/05 08:20 23.1 87 17.98 20.8 15 17 1016.4 5.4 39.0 39.1 74.5 196.9 215.1 746.7
04/05 08:10 22.6 89 17.88 20.7 15 20 1016.3 5.4 38.8 39.2 74.5 196.9 214.9 746.2
04/05 08:00 22.2 92 18.06 20.8 13 22 1016.4 5.4 39.2 39.7 75.7 200.3 218.9 760.1
04/05 07:50 22.1 94 18.35 21.1 11 19 1016.4 5.4 39.9 40.3 77.2 204.3 223.8 777.0
04/05 07:40 21.9 95 18.33 21.1 13 15 1016.3 5.4 39.8 40.4 77.3 204.5 224.1 777.9
04/05 07:30 21.8 94 18.03 20.8 15 24 1016.1 5.4 39.2 39.8 76.0 200.9 219.6 762.3
04/05 07:20 21.7 94 17.93 20.7 22 30 1015.9 5.4 39.0 39.7 75.6 199.8 218.3 757.7
04/05 07:10 22 96 18.63 21.3 19 26 1015.7 5.4 40.5 40.9 78.7 208.1 228.5 793.2
04/05 07:00 21.5 95 17.91 20.7 15 26 1015.6 5.4 39.0 39.7 75.7 200.1 218.5 758.5
04/05 06:50 21.4 96 18 20.7 15 20 1015.4 5.4 39.2 39.9 76.2 201.5 220.2 764.3
04/05 06:40 21.6 97 18.4 21.1 17 26 1015.3 5.4 40.0 40.6 77.9 206.1 226.0 784.4
04/05 06:30 21.4 96 18 20.7 19 35 1015.1 5.4 39.2 39.9 76.2 201.4 220.2 764.2
04/05 06:20 21.5 96 18.1 20.8 19 26 1015.2 5.4 39.4 40.1 76.6 202.5 221.5 768.7
04/05 06:10 21.6 97 18.4 21.1 13 19 1015.3 5.4 40.0 40.6 77.9 206.1 226.0 784.4
04/05 06:00 21.6 96 18.21 20.9 13 20 1015.2 5.4 39.6 40.2 77.0 203.6 222.9 773.8
04/05 05:50 21.7 96 18.31 21 13 20 1015.1 5.4 39.8 40.4 77.4 204.6 224.2 778.3
04/05 05:40 21.5 96 18.1 20.8 17 24 1014.9 5.4 39.4 40.1 76.5 202.4 221.4 768.6
04/05 05:30 21.7 96 18.31 21 15 20 1014.9 5.2 39.8 40.4 77.4 204.6 224.2 778.2
04/05 05:20 21.7 96 18.31 21 17 19 1014.9 4.4 39.8 40.4 77.4 204.6 224.2 778.2
04/05 05:10 21.7 96 18.31 21 13 17 1014.9 4.4 39.8 40.4 77.4 204.6 224.2 778.2
04/05 05:00 21.8 96 18.42 21.1 15 20 1014.9 4.4 40.0 40.5 77.8 205.7 225.6 783.2
04/05 04:50 21.9 95 18.33 21.1 13 17 1015.1 4.4 39.8 40.3 77.3 204.3 223.9 777.3
04/05 04:40 22.1 95 18.54 21.3 13 17 1015 4.4 40.3 40.6 78.1 206.5 226.6 786.8
04/05 04:30 22.4 93 18.47 21.2 17 24 1015 4.4 40.1 40.4 77.4 204.8 224.6 779.8
04/05 04:20 22.7 92 18.59 21.3 17 20 1015 4.2 40.3 40.4 77.7 205.5 225.6 783.3
04/05 04:10 22.5 94 18.77 21.5 15 22 1015 4.2 40.7 40.9 78.8 208.4 229.1 795.3
04/05 04:00 22.5 93 18.57 21.3 17 28 1014.9 4.2 40.3 40.5 77.8 205.8 225.9 784.2
04/05 03:50 22.4 93 18.47 21.2 19 22 1015 4.2 40.1 40.4 77.4 204.8 224.6 779.8
04/05 03:40 22.3 93 18.36 21.1 15 20 1015.1 4.2 39.9 40.2 77.0 203.6 223.2 774.8
04/05 03:30 22.1 94 18.35 21.1 15 22 1014.9 4.2 39.9 40.3 77.1 204.0 223.6 776.2
04/05 03:20 22.4 92 18.27 21 15 19 1015 4.2 39.7 40.0 76.5 202.2 221.4 768.8
04/05 03:10 22.8 90 18.29 21.1 17 22 1015.1 4.2 39.7 39.8 76.2 201.4 220.6 765.8
04/05 03:00 22.7 91 18.38 21.2 15 24 1015.1 4.2 39.9 40.0 76.7 202.8 222.3 771.8
04/05 02:50 22.8 91 18.49 21.3 11 13 1015.1 4.2 40.1 40.2 77.1 204.0 223.7 776.8
04/05 02:40 23 89 18.29 21.1 19 24 1015.1 4.2 39.6 39.7 76.0 200.9 220.0 763.8
04/05 02:30 22.7 90 18.18 21 17 28 1015.1 4.2 39.4 39.7 75.7 200.3 219.2 760.9
04/05 02:20 22.8 93 18.9 21.6 13 20 1015.2 4.2 41.0 41.0 79.1 209.3 230.2 799.4
04/05 02:10 22.6 93 18.68 21.4 15 22 1015.3 4.2 40.5 40.7 78.3 207.0 227.4 789.4
04/05 02:00 22.6 93 18.68 21.4 17 28 1015.4 4.2 40.5 40.7 78.3 207.0 227.4 789.5
04/05 01:50 22.7 93 18.79 21.5 19 24 1015.5 4.2 40.7 40.9 78.7 208.2 228.8 794.6
04/05 01:40 22.8 92 18.69 21.4 19 26 1015.6 4.2 40.5 40.6 78.1 206.6 227.0 788.0
04/05 01:30 22.9 91 18.6 21.4 17 28 1015.7 4.2 40.3 40.4 77.6 205.2 225.3 782.1
04/05 01:20 22.9 91 18.6 21.4 17 22 1015.7 4.2 40.3 40.4 77.6 205.2 225.3 782.1
04/05 01:10 23 90 18.5 21.3 17 22 1015.8 4.2 40.1 40.2 77.0 203.7 223.4 775.6
04/05 01:00 22.9 90 18.39 21.2 17 30 1015.8 4.2 39.9 40.0 76.6 202.5 222.0 770.7
04/05 00:50 22.9 91 18.6 21.4 19 26 1015.8 4.2 40.3 40.4 77.6 205.2 225.3 782.2
04/05 00:40 22.8 91 18.49 21.3 15 20 1015.9 4.2 40.1 40.2 77.2 204.1 223.9 777.2
04/05 00:30 22.8 92 18.69 21.4 19 32 1015.9 4.2 40.5 40.6 78.1 206.7 227.0 788.2
04/05 00:20 22.8 92 18.69 21.4 20 26 1016 4.2 40.5 40.6 78.1 206.7 227.0 788.3
04/05 00:10 22.8 93 18.9 21.6 17 24 1016.1 4.2 41.0 41.0 79.2 209.4 230.4 799.9
04/05 00:00 22.9 94 19.21 21.9 19 33 1016.2 4.2 41.6 41.6 80.6 213.2 235.0 816.1
03/05 23:50 22.9 93 19 21.7 19 30 1016.3 4.2 41.2 41.2 79.6 210.5 231.7 804.5
03/05 23:40 22.8 93 18.9 21.6 20 28 1016.4 4.2 41.0 41.1 79.2 209.5 230.4 800.1
03/05 23:30 22.8 93 18.9 21.6 20 33 1016.4 4 41.0 41.1 79.2 209.5 230.4 800.1
03/05 23:20 22.9 93 19 21.7 19 22 1016.5 4 41.2 41.2 79.6 210.5 231.7 804.6
03/05 23:10 22.9 93 19 21.7 19 24 1016.5 4 41.2 41.2 79.6 210.5 231.7 804.6
03/05 23:00 22.9 93 19 21.7 19 30 1016.5 4 41.2 41.2 79.6 210.5 231.7 804.6

Last Refresh: 04-May-2026 15:05:54

Bureau of Meteorology